sensor_id;sensor_type;location;lat;lon;timestamp;temperature;humidity
10419;DHT22;5256;48.728;9.140;2023-04-03T00:01:03;2.60;99.90
10419;DHT22;5256;48.728;9.140;2023-04-03T00:03:29;2.60;99.90
10419;DHT22;5256;48.728;9.140;2023-04-03T00:05:54;2.60;99.90
10419;DHT22;5256;48.728;9.140;2023-04-03T00:08:20;2.60;99.90
10419;DHT22;5256;48.728;9.140;2023-04-03T00:10:47;2.60;99.90
10419;DHT22;5256;48.728;9.140;2023-04-03T00:13:13;2.60;99.90
10419;DHT22;5256;48.728;9.140;2023-04-03T00:15:39;2.50;99.90
10419;DHT22;5256;48.728;9.140;2023-04-03T00:18:05;2.50;99.90
10419;DHT22;5256;48.728;9.140;2023-04-03T00:20:31;2.50;99.90
10419;DHT22;5256;48.728;9.140;2023-04-03T00:22:57;2.50;99.90
10419;DHT22;5256;48.728;9.140;2023-04-03T00:25:26;2.50;99.90
10419;DHT22;5256;48.728;9.140;2023-04-03T00:27:52;2.40;99.90
10419;DHT22;5256;48.728;9.140;2023-04-03T00:30:19;2.40;99.90
10419;DHT22;5256;48.728;9.140;2023-04-03T00:32:48;2.40;99.90
10419;DHT22;5256;48.728;9.140;2023-04-03T00:35:14;2.40;99.90
10419;DHT22;5256;48.728;9.140;2023-04-03T00:37:42;2.40;99.90
10419;DHT22;5256;48.728;9.140;2023-04-03T00:40:08;2.40;99.90
10419;DHT22;5256;48.728;9.140;2023-04-03T00:42:36;2.30;99.90
10419;DHT22;5256;48.728;9.140;2023-04-03T00:47:28;2.30;99.90
10419;DHT22;5256;48.728;9.140;2023-04-03T00:49:55;2.20;99.90
10419;DHT22;5256;48.728;9.140;2023-04-03T00:52:26;2.30;99.90
10419;DHT22;5256;48.728;9.140;2023-04-03T00:54:55;2.30;99.90
10419;DHT22;5256;48.728;9.140;2023-04-03T00:57:22;2.20;99.90
10419;DHT22;5256;48.728;9.140;2023-04-03T00:59:56;2.20;99.90
10419;DHT22;5256;48.728;9.140;2023-04-03T01:02:23;2.20;99.90
10419;DHT22;5256;48.728;9.140;2023-04-03T01:04:49;2.20;99.90
10419;DHT22;5256;48.728;9.140;2023-04-03T01:07:24;2.20;99.90
10419;DHT22;5256;48.728;9.140;2023-04-03T01:09:53;2.20;99.90
10419;DHT22;5256;48.728;9.140;2023-04-03T01:12:22;2.20;99.90
10419;DHT22;5256;48.728;9.140;2023-04-03T01:14:56;2.20;99.90
10419;DHT22;5256;48.728;9.140;2023-04-03T01:17:30;2.20;99.90
10419;DHT22;5256;48.728;9.140;2023-04-03T01:25:47;2.10;99.90
10419;DHT22;5256;48.728;9.140;2023-04-03T01:28:18;2.10;99.90
10419;DHT22;5256;48.728;9.140;2023-04-03T01:31:15;2.10;99.90
10419;DHT22;5256;48.728;9.140;2023-04-03T01:33:44;2.10;99.90
10419;DHT22;5256;48.728;9.140;2023-04-03T01:36:15;2.10;99.90
10419;DHT22;5256;48.728;9.140;2023-04-03T01:38:41;2.10;99.90
10419;DHT22;5256;48.728;9.140;2023-04-03T01:41:06;2.00;99.90
10419;DHT22;5256;48.728;9.140;2023-04-03T01:43:32;2.10;99.90
10419;DHT22;5256;48.728;9.140;2023-04-03T01:45:57;2.10;99.90
10419;DHT22;5256;48.728;9.140;2023-04-03T01:48:23;2.00;99.90
10419;DHT22;5256;48.728;9.140;2023-04-03T01:50:48;2.10;99.90
10419;DHT22;5256;48.728;9.140;2023-04-03T01:53:14;2.10;99.90
10419;DHT22;5256;48.728;9.140;2023-04-03T01:55:40;2.10;99.90
10419;DHT22;5256;48.728;9.140;2023-04-03T01:58:05;2.10;99.90
10419;DHT22;5256;48.728;9.140;2023-04-03T02:00:31;2.00;99.90
10419;DHT22;5256;48.728;9.140;2023-04-03T02:02:56;2.10;99.90
10419;DHT22;5256;48.728;9.140;2023-04-03T02:05:22;2.00;99.90
10419;DHT22;5256;48.728;9.140;2023-04-03T02:07:48;2.00;99.90
10419;DHT22;5256;48.728;9.140;2023-04-03T02:10:13;2.00;99.90
10419;DHT22;5256;48.728;9.140;2023-04-03T02:12:39;2.00;99.90
10419;DHT22;5256;48.728;9.140;2023-04-03T02:15:05;2.10;99.90
10419;DHT22;5256;48.728;9.140;2023-04-03T02:17:31;2.10;99.90
10419;DHT22;5256;48.728;9.140;2023-04-03T02:19:56;2.10;99.90
10419;DHT22;5256;48.728;9.140;2023-04-03T02:22:22;2.10;99.90
10419;DHT22;5256;48.728;9.140;2023-04-03T02:24:47;2.00;99.90
10419;DHT22;5256;48.728;9.140;2023-04-03T02:27:13;2.10;99.90
10419;DHT22;5256;48.728;9.140;2023-04-03T02:29:40;2.10;99.90
10419;DHT22;5256;48.728;9.140;2023-04-03T02:32:05;2.10;99.90
10419;DHT22;5256;48.728;9.140;2023-04-03T02:34:31;2.10;99.90
10419;DHT22;5256;48.728;9.140;2023-04-03T02:36:56;2.10;99.90
10419;DHT22;5256;48.728;9.140;2023-04-03T02:39:22;2.10;99.90
10419;DHT22;5256;48.728;9.140;2023-04-03T02:41:48;2.10;99.90
10419;DHT22;5256;48.728;9.140;2023-04-03T02:44:13;2.10;99.90
10419;DHT22;5256;48.728;9.140;2023-04-03T02:46:39;2.10;99.90
10419;DHT22;5256;48.728;9.140;2023-04-03T02:49:05;2.10;99.90
10419;DHT22;5256;48.728;9.140;2023-04-03T02:51:31;2.10;99.90
10419;DHT22;5256;48.728;9.140;2023-04-03T02:53:56;2.10;99.90
10419;DHT22;5256;48.728;9.140;2023-04-03T02:56:22;2.10;99.90
10419;DHT22;5256;48.728;9.140;2023-04-03T02:58:47;2.10;99.90
10419;DHT22;5256;48.728;9.140;2023-04-03T03:01:13;2.00;99.90
10419;DHT22;5256;48.728;9.140;2023-04-03T03:03:39;2.10;99.90
10419;DHT22;5256;48.728;9.140;2023-04-03T03:06:10;2.10;99.90
10419;DHT22;5256;48.728;9.140;2023-04-03T03:08:37;2.10;99.90
10419;DHT22;5256;48.728;9.140;2023-04-03T03:11:03;2.00;99.90
10419;DHT22;5256;48.728;9.140;2023-04-03T03:13:29;2.00;99.90
10419;DHT22;5256;48.728;9.140;2023-04-03T03:15:55;2.10;99.90
10419;DHT22;5256;48.728;9.140;2023-04-03T03:18:21;2.10;99.90
10419;DHT22;5256;48.728;9.140;2023-04-03T03:20:50;2.10;99.90
10419;DHT22;5256;48.728;9.140;2023-04-03T03:23:15;2.10;99.90
10419;DHT22;5256;48.728;9.140;2023-04-03T03:25:41;2.10;99.90
10419;DHT22;5256;48.728;9.140;2023-04-03T03:28:07;2.10;99.90
10419;DHT22;5256;48.728;9.140;2023-04-03T03:30:33;2.10;99.90
10419;DHT22;5256;48.728;9.140;2023-04-03T03:32:59;2.10;99.90
10419;DHT22;5256;48.728;9.140;2023-04-03T03:35:25;2.10;99.90
10419;DHT22;5256;48.728;9.140;2023-04-03T03:37:50;2.10;99.90
10419;DHT22;5256;48.728;9.140;2023-04-03T03:40:16;2.00;99.90
10419;DHT22;5256;48.728;9.140;2023-04-03T03:42:42;2.00;99.90
10419;DHT22;5256;48.728;9.140;2023-04-03T03:45:08;2.00;99.90
10419;DHT22;5256;48.728;9.140;2023-04-03T03:47:34;2.00;99.90
10419;DHT22;5256;48.728;9.140;2023-04-03T03:49:59;2.00;99.90
10419;DHT22;5256;48.728;9.140;2023-04-03T03:52:25;2.00;99.90
10419;DHT22;5256;48.728;9.140;2023-04-03T03:54:51;2.00;99.90
10419;DHT22;5256;48.728;9.140;2023-04-03T03:57:17;2.00;99.90
10419;DHT22;5256;48.728;9.140;2023-04-03T03:59:42;2.00;99.90
10419;DHT22;5256;48.728;9.140;2023-04-03T04:02:10;2.00;99.90
10419;DHT22;5256;48.728;9.140;2023-04-03T04:04:36;2.00;99.90
10419;DHT22;5256;48.728;9.140;2023-04-03T04:07:01;2.00;99.90
10419;DHT22;5256;48.728;9.140;2023-04-03T04:09:27;2.00;99.90
10419;DHT22;5256;48.728;9.140;2023-04-03T04:11:53;2.00;99.90
10419;DHT22;5256;48.728;9.140;2023-04-03T04:14:18;2.00;99.90
10419;DHT22;5256;48.728;9.140;2023-04-03T04:16:46;2.00;99.90
10419;DHT22;5256;48.728;9.140;2023-04-03T04:19:12;2.00;99.90
10419;DHT22;5256;48.728;9.140;2023-04-03T04:21:39;2.00;99.90
10419;DHT22;5256;48.728;9.140;2023-04-03T04:24:05;2.00;99.90
10419;DHT22;5256;48.728;9.140;2023-04-03T04:26:31;2.00;99.90
10419;DHT22;5256;48.728;9.140;2023-04-03T04:28:56;2.00;99.90
10419;DHT22;5256;48.728;9.140;2023-04-03T04:31:22;2.00;99.90
10419;DHT22;5256;48.728;9.140;2023-04-03T04:33:47;1.90;99.90
10419;DHT22;5256;48.728;9.140;2023-04-03T04:36:13;2.00;99.90
10419;DHT22;5256;48.728;9.140;2023-04-03T04:38:40;2.00;99.90
10419;DHT22;5256;48.728;9.140;2023-04-03T04:41:05;2.10;99.90
10419;DHT22;5256;48.728;9.140;2023-04-03T04:43:31;2.10;99.90
10419;DHT22;5256;48.728;9.140;2023-04-03T04:46:01;2.10;99.90
10419;DHT22;5256;48.728;9.140;2023-04-03T04:48:27;2.10;99.90
10419;DHT22;5256;48.728;9.140;2023-04-03T04:50:52;2.10;99.90
10419;DHT22;5256;48.728;9.140;2023-04-03T04:53:18;2.10;99.90
10419;DHT22;5256;48.728;9.140;2023-04-03T04:55:43;2.10;99.90
10419;DHT22;5256;48.728;9.140;2023-04-03T04:58:09;2.10;99.90
10419;DHT22;5256;48.728;9.140;2023-04-03T05:00:35;2.10;99.90
10419;DHT22;5256;48.728;9.140;2023-04-03T05:03:01;2.10;99.90
10419;DHT22;5256;48.728;9.140;2023-04-03T05:05:26;2.10;99.90
10419;DHT22;5256;48.728;9.140;2023-04-03T05:07:52;2.10;99.90
10419;DHT22;5256;48.728;9.140;2023-04-03T05:10:17;2.20;99.90
10419;DHT22;5256;48.728;9.140;2023-04-03T05:12:43;2.20;99.90
10419;DHT22;5256;48.728;9.140;2023-04-03T05:15:09;2.20;99.90
10419;DHT22;5256;48.728;9.140;2023-04-03T05:17:37;2.20;99.90
10419;DHT22;5256;48.728;9.140;2023-04-03T05:20:04;2.20;99.90
10419;DHT22;5256;48.728;9.140;2023-04-03T05:22:30;2.20;99.90
10419;DHT22;5256;48.728;9.140;2023-04-03T05:24:56;2.20;99.90
10419;DHT22;5256;48.728;9.140;2023-04-03T05:27:22;2.30;99.90
10419;DHT22;5256;48.728;9.140;2023-04-03T05:29:49;2.30;99.90
10419;DHT22;5256;48.728;9.140;2023-04-03T05:32:15;2.20;99.90
10419;DHT22;5256;48.728;9.140;2023-04-03T05:34:41;2.20;99.90
10419;DHT22;5256;48.728;9.140;2023-04-03T05:37:07;2.20;99.90
10419;DHT22;5256;48.728;9.140;2023-04-03T05:39:32;2.30;99.90
10419;DHT22;5256;48.728;9.140;2023-04-03T05:41:58;2.40;99.90
10419;DHT22;5256;48.728;9.140;2023-04-03T05:44:23;2.40;99.90
10419;DHT22;5256;48.728;9.140;2023-04-03T05:46:49;2.50;99.90
10419;DHT22;5256;48.728;9.140;2023-04-03T05:49:15;2.40;99.90
10419;DHT22;5256;48.728;9.140;2023-04-03T05:51:40;2.50;99.90
10419;DHT22;5256;48.728;9.140;2023-04-03T05:54:28;2.50;99.90
10419;DHT22;5256;48.728;9.140;2023-04-03T05:56:55;2.60;99.90
10419;DHT22;5256;48.728;9.140;2023-04-03T05:59:21;2.60;99.90
10419;DHT22;5256;48.728;9.140;2023-04-03T06:01:47;2.50;99.90
10419;DHT22;5256;48.728;9.140;2023-04-03T06:04:13;2.50;99.90
10419;DHT22;5256;48.728;9.140;2023-04-03T06:07:05;2.50;99.90
10419;DHT22;5256;48.728;9.140;2023-04-03T06:09:33;2.60;99.90
10419;DHT22;5256;48.728;9.140;2023-04-03T06:11:59;2.60;99.90
10419;DHT22;5256;48.728;9.140;2023-04-03T06:14:25;2.60;99.90
10419;DHT22;5256;48.728;9.140;2023-04-03T06:16:52;2.60;99.90
10419;DHT22;5256;48.728;9.140;2023-04-03T06:19:18;2.50;99.90
10419;DHT22;5256;48.728;9.140;2023-04-03T06:21:43;2.50;99.90
10419;DHT22;5256;48.728;9.140;2023-04-03T06:24:10;2.40;99.90
10419;DHT22;5256;48.728;9.140;2023-04-03T06:26:37;2.50;99.90
10419;DHT22;5256;48.728;9.140;2023-04-03T06:29:03;2.60;99.90
10419;DHT22;5256;48.728;9.140;2023-04-03T06:31:29;2.60;99.90
10419;DHT22;5256;48.728;9.140;2023-04-03T06:33:54;2.70;99.90
10419;DHT22;5256;48.728;9.140;2023-04-03T06:36:21;2.90;99.90
10419;DHT22;5256;48.728;9.140;2023-04-03T06:38:47;2.90;99.90
10419;DHT22;5256;48.728;9.140;2023-04-03T06:41:13;2.90;99.90
10419;DHT22;5256;48.728;9.140;2023-04-03T06:43:39;2.90;99.90
10419;DHT22;5256;48.728;9.140;2023-04-03T06:46:04;3.00;99.90
10419;DHT22;5256;48.728;9.140;2023-04-03T06:48:30;2.90;99.90
10419;DHT22;5256;48.728;9.140;2023-04-03T06:50:56;3.10;99.90
10419;DHT22;5256;48.728;9.140;2023-04-03T06:53:21;3.10;99.90
10419;DHT22;5256;48.728;9.140;2023-04-03T06:55:47;3.10;99.90
10419;DHT22;5256;48.728;9.140;2023-04-03T06:58:13;3.10;99.90
10419;DHT22;5256;48.728;9.140;2023-04-03T07:00:41;3.20;99.90
10419;DHT22;5256;48.728;9.140;2023-04-03T07:03:06;3.20;99.90
10419;DHT22;5256;48.728;9.140;2023-04-03T07:05:32;3.10;99.90
10419;DHT22;5256;48.728;9.140;2023-04-03T07:07:58;3.10;99.90
10419;DHT22;5256;48.728;9.140;2023-04-03T07:10:23;3.10;99.90
10419;DHT22;5256;48.728;9.140;2023-04-03T07:12:49;3.00;99.90
10419;DHT22;5256;48.728;9.140;2023-04-03T07:15:15;3.00;99.90
10419;DHT22;5256;48.728;9.140;2023-04-03T07:17:40;2.90;99.90
10419;DHT22;5256;48.728;9.140;2023-04-03T07:20:07;3.00;99.90
10419;DHT22;5256;48.728;9.140;2023-04-03T07:22:33;3.10;99.90
10419;DHT22;5256;48.728;9.140;2023-04-03T07:24:58;3.10;99.90
10419;DHT22;5256;48.728;9.140;2023-04-03T07:27:25;3.30;99.90
10419;DHT22;5256;48.728;9.140;2023-04-03T07:29:50;3.40;99.90
10419;DHT22;5256;48.728;9.140;2023-04-03T07:32:16;3.70;99.90
10419;DHT22;5256;48.728;9.140;2023-04-03T07:34:43;3.70;99.90
10419;DHT22;5256;48.728;9.140;2023-04-03T07:37:09;4.00;99.90
10419;DHT22;5256;48.728;9.140;2023-04-03T07:39:35;3.80;99.90
10419;DHT22;5256;48.728;9.140;2023-04-03T07:42:28;3.60;99.90
10419;DHT22;5256;48.728;9.140;2023-04-03T07:44:54;3.70;99.90
10419;DHT22;5256;48.728;9.140;2023-04-03T07:47:19;4.10;99.90
10419;DHT22;5256;48.728;9.140;2023-04-03T07:49:46;4.20;99.90
10419;DHT22;5256;48.728;9.140;2023-04-03T07:52:12;4.00;99.90
10419;DHT22;5256;48.728;9.140;2023-04-03T07:54:40;4.10;99.90
10419;DHT22;5256;48.728;9.140;2023-04-03T07:57:05;4.20;99.90
10419;DHT22;5256;48.728;9.140;2023-04-03T07:59:32;3.90;99.90
10419;DHT22;5256;48.728;9.140;2023-04-03T08:01:57;3.80;99.90
10419;DHT22;5256;48.728;9.140;2023-04-03T08:04:23;3.80;99.90
10419;DHT22;5256;48.728;9.140;2023-04-03T08:06:49;3.90;99.90
10419;DHT22;5256;48.728;9.140;2023-04-03T08:09:15;4.10;99.90
10419;DHT22;5256;48.728;9.140;2023-04-03T08:11:41;4.20;99.90
10419;DHT22;5256;48.728;9.140;2023-04-03T08:14:07;4.30;99.90
10419;DHT22;5256;48.728;9.140;2023-04-03T08:16:32;4.40;99.90
10419;DHT22;5256;48.728;9.140;2023-04-03T08:18:58;4.30;99.90
10419;DHT22;5256;48.728;9.140;2023-04-03T08:21:24;4.30;99.90
10419;DHT22;5256;48.728;9.140;2023-04-03T08:23:50;4.40;99.90
10419;DHT22;5256;48.728;9.140;2023-04-03T08:26:18;4.50;99.90
10419;DHT22;5256;48.728;9.140;2023-04-03T08:28:44;4.50;99.90
10419;DHT22;5256;48.728;9.140;2023-04-03T08:31:14;4.70;99.90
10419;DHT22;5256;48.728;9.140;2023-04-03T08:33:40;4.80;99.90
10419;DHT22;5256;48.728;9.140;2023-04-03T08:36:08;4.50;99.90
10419;DHT22;5256;48.728;9.140;2023-04-03T08:38:40;4.40;99.90
10419;DHT22;5256;48.728;9.140;2023-04-03T08:44:52;4.50;99.90
10419;DHT22;5256;48.728;9.140;2023-04-03T08:47:26;4.70;99.90
10419;DHT22;5256;48.728;9.140;2023-04-03T08:49:58;4.70;99.90
10419;DHT22;5256;48.728;9.140;2023-04-03T08:52:44;4.50;99.90
10419;DHT22;5256;48.728;9.140;2023-04-03T08:55:37;4.70;99.90
10419;DHT22;5256;48.728;9.140;2023-04-03T08:58:09;4.70;99.90
10419;DHT22;5256;48.728;9.140;2023-04-03T09:03:18;5.40;99.90
10419;DHT22;5256;48.728;9.140;2023-04-03T09:08:30;5.70;99.90
10419;DHT22;5256;48.728;9.140;2023-04-03T09:21:52;5.90;99.90
10419;DHT22;5256;48.728;9.140;2023-04-03T09:24:18;6.00;99.90
10419;DHT22;5256;48.728;9.140;2023-04-03T09:27:03;6.10;99.90
10419;DHT22;5256;48.728;9.140;2023-04-03T09:29:29;5.80;99.90
10419;DHT22;5256;48.728;9.140;2023-04-03T09:32:21;5.70;99.90
10419;DHT22;5256;48.728;9.140;2023-04-03T09:34:52;5.90;99.90
10419;DHT22;5256;48.728;9.140;2023-04-03T09:37:40;6.10;99.90
10419;DHT22;5256;48.728;9.140;2023-04-03T09:40:28;6.20;99.90
10419;DHT22;5256;48.728;9.140;2023-04-03T09:42:57;6.10;99.90
10419;DHT22;5256;48.728;9.140;2023-04-03T09:45:27;5.80;99.90
10419;DHT22;5256;48.728;9.140;2023-04-03T09:53:48;5.60;99.90
10419;DHT22;5256;48.728;9.140;2023-04-03T09:58:45;5.50;99.90
10419;DHT22;5256;48.728;9.140;2023-04-03T10:01:35;5.60;99.90
10419;DHT22;5256;48.728;9.140;2023-04-03T10:06:33;5.30;99.90
10419;DHT22;5256;48.728;9.140;2023-04-03T10:09:09;5.00;99.90
10419;DHT22;5256;48.728;9.140;2023-04-03T10:11:58;4.90;99.90
10419;DHT22;5256;48.728;9.140;2023-04-03T10:14:25;5.10;99.90
10419;DHT22;5256;48.728;9.140;2023-04-03T10:19:51;4.90;99.90
10419;DHT22;5256;48.728;9.140;2023-04-03T10:25:14;4.90;99.90
10419;DHT22;5256;48.728;9.140;2023-04-03T10:47:05;5.30;99.90
10419;DHT22;5256;48.728;9.140;2023-04-03T10:49:44;5.30;99.90
10419;DHT22;5256;48.728;9.140;2023-04-03T10:57:37;4.90;99.90
10419;DHT22;5256;48.728;9.140;2023-04-03T11:00:51;4.90;99.90
10419;DHT22;5256;48.728;9.140;2023-04-03T11:02:58;5.00;99.90
10419;DHT22;5256;48.728;9.140;2023-04-03T11:07:53;4.90;99.90
10419;DHT22;5256;48.728;9.140;2023-04-03T11:10:35;4.80;99.90
10419;DHT22;5256;48.728;9.140;2023-04-03T11:13:24;4.80;99.90
10419;DHT22;5256;48.728;9.140;2023-04-03T11:15:53;4.60;99.90
10419;DHT22;5256;48.728;9.140;2023-04-03T11:18:25;4.50;99.90
10419;DHT22;5256;48.728;9.140;2023-04-03T11:21:19;4.50;99.90
10419;DHT22;5256;48.728;9.140;2023-04-03T11:23:47;4.80;99.90
10419;DHT22;5256;48.728;9.140;2023-04-03T11:26:16;5.00;99.90
10419;DHT22;5256;48.728;9.140;2023-04-03T11:28:42;5.00;99.90
10419;DHT22;5256;48.728;9.140;2023-04-03T11:31:12;5.10;99.90
10419;DHT22;5256;48.728;9.140;2023-04-03T11:36:33;5.10;99.90
10419;DHT22;5256;48.728;9.140;2023-04-03T11:41:47;5.20;99.90
10419;DHT22;5256;48.728;9.140;2023-04-03T11:44:34;5.20;99.90
10419;DHT22;5256;48.728;9.140;2023-04-03T11:47:03;5.00;99.90
10419;DHT22;5256;48.728;9.140;2023-04-03T11:50:02;5.10;99.90
10419;DHT22;5256;48.728;9.140;2023-04-03T12:16:26;5.30;99.90
10419;DHT22;5256;48.728;9.140;2023-04-03T12:45:44;5.40;99.90
10419;DHT22;5256;48.728;9.140;2023-04-03T12:48:22;5.40;99.90
10419;DHT22;5256;48.728;9.140;2023-04-03T12:50:50;5.50;99.90
10419;DHT22;5256;48.728;9.140;2023-04-03T12:53:25;5.50;99.90
10419;DHT22;5256;48.728;9.140;2023-04-03T12:56:18;5.50;99.90
10419;DHT22;5256;48.728;9.140;2023-04-03T12:58:41;5.40;99.90
10419;DHT22;5256;48.728;9.140;2023-04-03T13:01:13;5.40;99.90
10419;DHT22;5256;48.728;9.140;2023-04-03T13:03:43;5.30;99.90
10419;DHT22;5256;48.728;9.140;2023-04-03T13:06:24;5.40;99.90
10419;DHT22;5256;48.728;9.140;2023-04-03T13:08:52;5.40;99.90
10419;DHT22;5256;48.728;9.140;2023-04-03T13:11:20;5.60;99.90
10419;DHT22;5256;48.728;9.140;2023-04-03T13:14:22;5.70;99.90
10419;DHT22;5256;48.728;9.140;2023-04-03T13:19:47;6.30;99.90
10419;DHT22;5256;48.728;9.140;2023-04-03T13:22:34;6.30;99.90
10419;DHT22;5256;48.728;9.140;2023-04-03T13:25:10;6.20;99.90
10419;DHT22;5256;48.728;9.140;2023-04-03T13:27:36;6.10;99.90
10419;DHT22;5256;48.728;9.140;2023-04-03T13:30:05;6.30;99.90
10419;DHT22;5256;48.728;9.140;2023-04-03T13:32:32;6.50;99.90
10419;DHT22;5256;48.728;9.140;2023-04-03T13:34:58;6.30;99.90
10419;DHT22;5256;48.728;9.140;2023-04-03T13:37:32;6.20;99.80
10419;DHT22;5256;48.728;9.140;2023-04-03T13:42:31;6.30;99.90
10419;DHT22;5256;48.728;9.140;2023-04-03T13:47:42;6.10;99.60
10419;DHT22;5256;48.728;9.140;2023-04-03T13:52:49;6.10;99.10
10419;DHT22;5256;48.728;9.140;2023-04-03T13:55:25;6.00;99.40
10419;DHT22;5256;48.728;9.140;2023-04-03T13:57:55;6.10;99.90
10419;DHT22;5256;48.728;9.140;2023-04-03T14:00:36;6.00;99.50
10419;DHT22;5256;48.728;9.140;2023-04-03T14:03:11;6.20;99.90
10419;DHT22;5256;48.728;9.140;2023-04-03T14:05:37;6.30;99.90
10419;DHT22;5256;48.728;9.140;2023-04-03T14:08:03;6.50;99.80
10419;DHT22;5256;48.728;9.140;2023-04-03T14:10:29;6.40;99.10
10419;DHT22;5256;48.728;9.140;2023-04-03T14:12:55;6.70;99.00
10419;DHT22;5256;48.728;9.140;2023-04-03T14:15:28;6.70;98.50
10419;DHT22;5256;48.728;9.140;2023-04-03T14:17:54;6.60;99.20
10419;DHT22;5256;48.728;9.140;2023-04-03T14:20:23;6.70;99.00
10419;DHT22;5256;48.728;9.140;2023-04-03T14:22:49;6.20;99.10
10419;DHT22;5256;48.728;9.140;2023-04-03T14:25:16;6.20;99.40
10419;DHT22;5256;48.728;9.140;2023-04-03T14:27:44;6.20;99.70
10419;DHT22;5256;48.728;9.140;2023-04-03T14:30:36;6.10;99.50
10419;DHT22;5256;48.728;9.140;2023-04-03T14:33:02;6.00;99.40
10419;DHT22;5256;48.728;9.140;2023-04-03T14:35:28;6.00;99.90
10419;DHT22;5256;48.728;9.140;2023-04-03T14:37:54;5.80;99.40
10419;DHT22;5256;48.728;9.140;2023-04-03T14:40:29;5.70;99.40
10419;DHT22;5256;48.728;9.140;2023-04-03T14:42:54;5.50;99.60
10419;DHT22;5256;48.728;9.140;2023-04-03T14:45:21;5.60;99.90
10419;DHT22;5256;48.728;9.140;2023-04-03T14:47:49;5.50;99.90
10419;DHT22;5256;48.728;9.140;2023-04-03T14:50:18;5.60;99.60
10419;DHT22;5256;48.728;9.140;2023-04-03T14:52:44;6.20;99.80
10419;DHT22;5256;48.728;9.140;2023-04-03T14:55:11;6.70;99.00
10419;DHT22;5256;48.728;9.140;2023-04-03T14:57:38;7.20;98.00
10419;DHT22;5256;48.728;9.140;2023-04-03T15:00:06;7.50;97.80
10419;DHT22;5256;48.728;9.140;2023-04-03T15:02:33;8.10;97.20
10419;DHT22;5256;48.728;9.140;2023-04-03T15:05:00;7.90;96.70
10419;DHT22;5256;48.728;9.140;2023-04-03T15:07:30;7.10;96.80
10419;DHT22;5256;48.728;9.140;2023-04-03T15:09:56;6.70;97.40
10419;DHT22;5256;48.728;9.140;2023-04-03T15:12:23;6.40;97.70
10419;DHT22;5256;48.728;9.140;2023-04-03T15:14:49;6.10;97.60
10419;DHT22;5256;48.728;9.140;2023-04-03T15:17:18;6.00;98.20
10419;DHT22;5256;48.728;9.140;2023-04-03T15:19:45;5.80;98.20
10419;DHT22;5256;48.728;9.140;2023-04-03T15:22:19;5.80;98.20
10419;DHT22;5256;48.728;9.140;2023-04-03T15:24:45;5.80;98.20
10419;DHT22;5256;48.728;9.140;2023-04-03T15:27:13;5.60;97.70
10419;DHT22;5256;48.728;9.140;2023-04-03T15:29:40;5.80;98.30
10419;DHT22;5256;48.728;9.140;2023-04-03T15:32:06;5.90;97.90
10419;DHT22;5256;48.728;9.140;2023-04-03T15:34:32;5.90;97.90
10419;DHT22;5256;48.728;9.140;2023-04-03T15:36:57;6.00;97.90
10419;DHT22;5256;48.728;9.140;2023-04-03T15:39:24;6.10;97.60
10419;DHT22;5256;48.728;9.140;2023-04-03T15:41:50;6.20;97.70
10419;DHT22;5256;48.728;9.140;2023-04-03T15:44:17;6.20;97.00
10419;DHT22;5256;48.728;9.140;2023-04-03T15:46:45;6.10;97.00
10419;DHT22;5256;48.728;9.140;2023-04-03T15:49:11;6.00;96.90
10419;DHT22;5256;48.728;9.140;2023-04-03T15:51:37;5.80;96.60
10419;DHT22;5256;48.728;9.140;2023-04-03T15:54:02;5.60;96.80
10419;DHT22;5256;48.728;9.140;2023-04-03T15:56:28;5.40;96.70
10419;DHT22;5256;48.728;9.140;2023-04-03T15:58:53;5.10;97.10
10419;DHT22;5256;48.728;9.140;2023-04-03T16:01:19;5.10;97.70
10419;DHT22;5256;48.728;9.140;2023-04-03T16:03:45;5.10;98.30
10419;DHT22;5256;48.728;9.140;2023-04-03T16:06:12;5.10;98.00
10419;DHT22;5256;48.728;9.140;2023-04-03T16:08:38;5.10;98.30
10419;DHT22;5256;48.728;9.140;2023-04-03T16:11:03;5.30;97.90
10419;DHT22;5256;48.728;9.140;2023-04-03T16:13:29;5.30;97.20
10419;DHT22;5256;48.728;9.140;2023-04-03T16:15:55;5.30;97.70
10419;DHT22;5256;48.728;9.140;2023-04-03T16:18:21;5.50;97.20
10419;DHT22;5256;48.728;9.140;2023-04-03T16:20:47;5.60;97.20
10419;DHT22;5256;48.728;9.140;2023-04-03T16:23:13;5.70;96.80
10419;DHT22;5256;48.728;9.140;2023-04-03T16:25:38;5.70;96.70
10419;DHT22;5256;48.728;9.140;2023-04-03T16:28:04;5.80;96.60
10419;DHT22;5256;48.728;9.140;2023-04-03T16:30:30;5.60;96.90
10419;DHT22;5256;48.728;9.140;2023-04-03T16:32:57;5.60;96.90
10419;DHT22;5256;48.728;9.140;2023-04-03T16:35:22;5.50;96.00
10419;DHT22;5256;48.728;9.140;2023-04-03T16:37:48;5.30;95.70
10419;DHT22;5256;48.728;9.140;2023-04-03T16:40:14;5.20;95.50
10419;DHT22;5256;48.728;9.140;2023-04-03T16:42:45;5.10;95.20
10419;DHT22;5256;48.728;9.140;2023-04-03T16:45:23;5.00;95.70
10419;DHT22;5256;48.728;9.140;2023-04-03T16:48:07;4.90;95.50
10419;DHT22;5256;48.728;9.140;2023-04-03T16:50:32;4.80;96.00
10419;DHT22;5256;48.728;9.140;2023-04-03T16:52:58;4.80;96.00
10419;DHT22;5256;48.728;9.140;2023-04-03T16:55:24;4.80;96.10
10419;DHT22;5256;48.728;9.140;2023-04-03T16:57:49;4.80;96.50
10419;DHT22;5256;48.728;9.140;2023-04-03T17:00:15;4.80;96.20
10419;DHT22;5256;48.728;9.140;2023-04-03T17:02:41;4.90;96.30
10419;DHT22;5256;48.728;9.140;2023-04-03T17:05:07;4.90;96.30
10419;DHT22;5256;48.728;9.140;2023-04-03T17:07:33;5.00;96.50
10419;DHT22;5256;48.728;9.140;2023-04-03T17:09:59;5.00;96.70
10419;DHT22;5256;48.728;9.140;2023-04-03T17:12:25;5.00;96.90
10419;DHT22;5256;48.728;9.140;2023-04-03T17:14:50;5.10;96.70
10419;DHT22;5256;48.728;9.140;2023-04-03T17:17:21;5.00;95.70
10419;DHT22;5256;48.728;9.140;2023-04-03T17:19:47;5.10;96.00
10419;DHT22;5256;48.728;9.140;2023-04-03T17:22:13;5.00;95.70
10419;DHT22;5256;48.728;9.140;2023-04-03T17:24:38;5.00;96.00
10419;DHT22;5256;48.728;9.140;2023-04-03T17:27:04;5.00;96.30
10419;DHT22;5256;48.728;9.140;2023-04-03T17:29:29;5.00;96.80
10419;DHT22;5256;48.728;9.140;2023-04-03T17:31:55;5.00;97.00
10419;DHT22;5256;48.728;9.140;2023-04-03T17:34:21;5.00;97.40
10419;DHT22;5256;48.728;9.140;2023-04-03T17:36:47;4.90;97.10
10419;DHT22;5256;48.728;9.140;2023-04-03T17:39:12;4.80;96.90
10419;DHT22;5256;48.728;9.140;2023-04-03T17:41:38;4.80;97.30
10419;DHT22;5256;48.728;9.140;2023-04-03T17:44:04;4.70;97.50
10419;DHT22;5256;48.728;9.140;2023-04-03T17:46:29;4.70;97.90
10419;DHT22;5256;48.728;9.140;2023-04-03T17:48:55;4.50;97.10
10419;DHT22;5256;48.728;9.140;2023-04-03T17:51:24;4.50;97.10
10419;DHT22;5256;48.728;9.140;2023-04-03T17:53:50;4.40;97.40
10419;DHT22;5256;48.728;9.140;2023-04-03T17:56:18;4.40;97.40
10419;DHT22;5256;48.728;9.140;2023-04-03T17:58:44;4.40;97.50
10419;DHT22;5256;48.728;9.140;2023-04-03T18:01:16;4.40;97.40
10419;DHT22;5256;48.728;9.140;2023-04-03T18:03:43;4.30;97.30
10419;DHT22;5256;48.728;9.140;2023-04-03T18:06:14;4.30;97.20
10419;DHT22;5256;48.728;9.140;2023-04-03T18:08:44;4.30;97.30
10419;DHT22;5256;48.728;9.140;2023-04-03T18:11:11;4.30;97.90
10419;DHT22;5256;48.728;9.140;2023-04-03T18:13:37;4.30;97.90
10419;DHT22;5256;48.728;9.140;2023-04-03T18:16:06;4.20;97.90
10419;DHT22;5256;48.728;9.140;2023-04-03T18:18:32;4.10;97.90
10419;DHT22;5256;48.728;9.140;2023-04-03T18:20:57;4.10;98.00
10419;DHT22;5256;48.728;9.140;2023-04-03T18:23:24;4.10;98.10
10419;DHT22;5256;48.728;9.140;2023-04-03T18:25:50;4.00;98.20
10419;DHT22;5256;48.728;9.140;2023-04-03T18:28:16;3.90;98.40